Time;durP1;ratioP1;P1;durP2;ratioP2;P2;SDS_P1;SDS_P2;PMS_P1;PMS_P2;Temp;Humidity;BMP_temperature;BMP_pressure;BME280_temperature;BME280_humidity;BME280_pressure;Samples;Min_cycle;Max_cycle;Signal;HPM_P1;HPM_P2
2019/07/01 00:00:06;;;;;;;7.7;6.9;;;;;;;24.86;56.67676;960.1919;;;;
2019/07/01 00:02:31;;;;;;;10.3;7.1;;;;;;;24.73;56.82715;960.1933;;;;
2019/07/01 00:04:56;;;;;;;10.2;6.9;;;;;;;24.7;56.74023;960.1841;;;;
2019/07/01 00:07:21;;;;;;;8.1;6.8;;;;;;;24.83;55.76953;960.1814;;;;
2019/07/01 00:09:46;;;;;;;8.4;7.1;;;;;;;24.69;54.39648;960.2939;;;;
2019/07/01 00:12:11;;;;;;;10.4;7.2;;;;;;;24.68;55.15625;960.3517;;;;
2019/07/01 00:14:36;;;;;;;8.7;6.5;;;;;;;24.79;53.54102;960.3887;;;;
2019/07/01 00:17:01;;;;;;;7.7;6.5;;;;;;;24.59;53.92188;960.3423;;;;
2019/07/01 00:19:26;;;;;;;9.2;6.8;;;;;;;24.59;53.7666;960.3984;;;;
2019/07/01 00:21:51;;;;;;;7.3;6.3;;;;;;;24.45;53.32227;960.3547;;;;
2019/07/01 00:24:17;;;;;;;8.7;6.4;;;;;;;24.49;53.34082;960.3439;;;;
2019/07/01 00:26:42;;;;;;;7.2;6.5;;;;;;;24.49;53.26758;960.3132;;;;
2019/07/01 00:29:07;;;;;;;9;6.8;;;;;;;24.46;53.14648;960.3242;;;;
2019/07/01 00:31:32;;;;;;;8.4;6.5;;;;;;;24.42;52.7373;960.3024;;;;
2019/07/01 00:33:57;;;;;;;7.6;6.1;;;;;;;24.44;52.8584;960.3542;;;;
2019/07/01 00:36:22;;;;;;;6.9;6.2;;;;;;;24.41;52.97266;960.2858;;;;
2019/07/01 00:38:47;;;;;;;7;6.3;;;;;;;24.49;53.07813;960.3301;;;;
2019/07/01 00:41:12;;;;;;;7.6;6.4;;;;;;;24.43;52.14355;960.3613;;;;
2019/07/01 00:43:37;;;;;;;7.7;6.2;;;;;;;24.47;52.28027;960.3823;;;;
2019/07/01 00:46:02;;;;;;;8.7;6.2;;;;;;;24.4;52.56738;960.413;;;;
2019/07/01 00:48:27;;;;;;;8.1;6;;;;;;;24.38;52.36426;960.4101;;;;
2019/07/01 00:50:53;;;;;;;7.4;6.6;;;;;;;24.36;51.41113;960.4269;;;;
2019/07/01 00:53:18;;;;;;;8.3;6.2;;;;;;;24.37;51.48438;960.4978;;;;
2019/07/01 00:55:43;;;;;;;7.1;6.4;;;;;;;24.34;51.50391;960.5374;;;;
2019/07/01 00:58:08;;;;;;;7.7;6.1;;;;;;;24.28;51.87695;960.5151;;;;
2019/07/01 01:00:33;;;;;;;8.9;6.1;;;;;;;24.32;52.27441;960.4897;;;;
2019/07/01 01:02:58;;;;;;;8.2;6.5;;;;;;;24.35;52.24121;960.511;;;;
2019/07/01 01:05:23;;;;;;;8.9;6.3;;;;;;;24.25;52.58594;960.4753;;;;
2019/07/01 01:07:48;;;;;;;8.9;6.5;;;;;;;24.14;52.62109;960.4182;;;;
2019/07/01 01:10:14;;;;;;;8.7;6.6;;;;;;;24.21;52.7002;960.4615;;;;
2019/07/01 01:12:39;;;;;;;7.9;6.8;;;;;;;24.15;53.03711;960.4672;;;;
2019/07/01 01:15:04;;;;;;;7.8;6.7;;;;;;;24.11;53.20996;960.4157;;;;
2019/07/01 01:17:29;;;;;;;7;6.3;;;;;;;24.13;53.16602;960.4392;;;;
2019/07/01 01:19:54;;;;;;;8.1;6.4;;;;;;;24.12;53.22461;960.4063;;;;
2019/07/01 01:22:19;;;;;;;8.6;7.2;;;;;;;24.14;52.88086;960.413;;;;
2019/07/01 01:24:44;;;;;;;9.4;6.4;;;;;;;24.17;52.90918;960.438;;;;
2019/07/01 01:27:09;;;;;;;6.9;6.1;;;;;;;24.22;52.7373;960.4454;;;;
2019/07/01 01:29:34;;;;;;;7;6.3;;;;;;;24.25;53.31055;960.446;;;;
2019/07/01 01:31:59;;;;;;;7.7;6.5;;;;;;;24.16;54.04785;960.4481;;;;
2019/07/01 01:34:24;;;;;;;9.4;6.1;;;;;;;24.16;53.59668;960.3484;;;;
2019/07/01 01:36:50;;;;;;;8.1;6.2;;;;;;;24.05;55.15039;960.3728;;;;
2019/07/01 01:39:15;;;;;;;10;6.4;;;;;;;23.98;55.86523;960.3819;;;;
2019/07/01 01:41:40;;;;;;;6.8;6.1;;;;;;;23.85;55.77734;960.3376;;;;
2019/07/01 01:44:05;;;;;;;7.4;6.5;;;;;;;23.83;56.28516;960.3384;;;;
2019/07/01 01:46:30;;;;;;;9.6;6.7;;;;;;;23.8;55.59375;960.3477;;;;
2019/07/01 01:48:55;;;;;;;7.1;6.1;;;;;;;23.74;55.69336;960.3934;;;;
2019/07/01 01:51:20;;;;;;;7;6.4;;;;;;;23.69;56.10156;960.3759;;;;
2019/07/01 01:53:45;;;;;;;6.9;6.2;;;;;;;23.74;54.69629;960.343;;;;
2019/07/01 01:56:10;;;;;;;7;6.3;;;;;;;23.76;55.58789;960.3448;;;;
2019/07/01 01:58:35;;;;;;;7.1;6.4;;;;;;;23.75;55.80078;960.319;;;;
2019/07/01 02:01:01;;;;;;;7.3;6.6;;;;;;;23.86;54.65137;960.2708;;;;
2019/07/01 02:03:26;;;;;;;7.3;6.5;;;;;;;23.77;55.92188;960.2502;;;;
2019/07/01 02:05:51;;;;;;;7.8;6.3;;;;;;;23.81;56.27051;960.2424;;;;
2019/07/01 02:08:16;;;;;;;9.8;6.8;;;;;;;23.79;55.30859;960.2936;;;;
2019/07/01 02:10:41;;;;;;;8.2;6;;;;;;;23.77;56.05273;960.2734;;;;
2019/07/01 02:13:06;;;;;;;7.7;6.3;;;;;;;23.67;56.54883;960.3557;;;;
2019/07/01 02:15:31;;;;;;;6.5;5.9;;;;;;;23.61;56.92188;960.3331;;;;
2019/07/01 02:17:56;;;;;;;8.7;6.5;;;;;;;23.62;57.15918;960.3262;;;;
2019/07/01 02:20:21;;;;;;;8.4;7;;;;;;;23.6;56.26855;960.2977;;;;
2019/07/01 02:22:47;;;;;;;7.5;6.8;;;;;;;23.63;57.12598;960.2544;;;;
2019/07/01 02:25:12;;;;;;;7.9;6.8;;;;;;;23.61;57.82324;960.2464;;;;
2019/07/01 02:27:37;;;;;;;7.6;6.7;;;;;;;23.64;57.3877;960.185;;;;
2019/07/01 02:30:02;;;;;;;7.2;6.5;;;;;;;23.56;58.58594;960.1692;;;;
2019/07/01 02:32:27;;;;;;;10.8;7.2;;;;;;;23.53;57.2666;960.1534;;;;
2019/07/01 02:34:52;;;;;;;7.4;6.7;;;;;;;23.56;56.57129;960.1235;;;;
2019/07/01 02:37:17;;;;;;;8.4;7;;;;;;;23.53;56.82813;960.1236;;;;
2019/07/01 02:39:42;;;;;;;9;7.2;;;;;;;23.57;57.1416;960.0964;;;;
2019/07/01 02:42:07;;;;;;;8;6.8;;;;;;;23.59;56.91895;960.0831;;;;
2019/07/01 02:44:32;;;;;;;8.8;7.3;;;;;;;23.56;57.09277;960.0767;;;;
2019/07/01 02:46:57;;;;;;;7.8;7;;;;;;;23.52;57.24121;960.0823;;;;
2019/07/01 02:49:22;;;;;;;8.4;6.7;;;;;;;23.6;58.15332;960.0396;;;;
2019/07/01 02:51:47;;;;;;;7.3;6.6;;;;;;;23.54;58.18066;959.9934;;;;
2019/07/01 02:54:13;;;;;;;9.4;7.1;;;;;;;23.58;57.08398;960.0345;;;;
2019/07/01 02:56:38;;;;;;;10.2;7.4;;;;;;;23.56;57.70898;960.0303;;;;
2019/07/01 02:59:03;;;;;;;10.4;6.7;;;;;;;23.49;59.22852;960.0399;;;;
2019/07/01 03:01:28;;;;;;;7.3;6.6;;;;;;;23.5;57.22656;960.0289;;;;
2019/07/01 03:03:53;;;;;;;9.8;7.1;;;;;;;23.58;57.17871;960.0502;;;;
2019/07/01 03:06:18;;;;;;;11.1;7.2;;;;;;;23.58;58.7666;960.0148;;;;
2019/07/01 03:08:43;;;;;;;8.6;6.8;;;;;;;23.53;58.82031;960.0494;;;;
2019/07/01 03:11:08;;;;;;;9.2;7.2;;;;;;;23.44;59.32813;960.0848;;;;
2019/07/01 03:13:33;;;;;;;8.5;7.6;;;;;;;23.42;56.99121;960.121;;;;
2019/07/01 03:15:58;;;;;;;7.9;7.1;;;;;;;23.46;57.99219;960.1147;;;;
2019/07/01 03:18:24;;;;;;;9.9;7.8;;;;;;;23.43;58.73438;960.1685;;;;
2019/07/01 03:20:49;;;;;;;8.7;7;;;;;;;23.41;59.28906;960.2505;;;;
2019/07/01 03:23:14;;;;;;;8;7;;;;;;;23.36;59.38867;960.2776;;;;
2019/07/01 03:25:39;;;;;;;8.1;7.3;;;;;;;23.36;59.75684;960.3044;;;;
2019/07/01 03:28:04;;;;;;;9.7;7.2;;;;;;;23.33;59.23145;960.3251;;;;
2019/07/01 03:30:29;;;;;;;9;7.1;;;;;;;23.26;59.87305;960.4105;;;;
2019/07/01 03:32:54;;;;;;;7.7;7;;;;;;;23.3;58.95508;960.4059;;;;
2019/07/01 03:35:19;;;;;;;7.7;6.9;;;;;;;23.28;59.50781;960.4507;;;;
2019/07/01 03:37:44;;;;;;;8.6;7.1;;;;;;;23.19;60.06738;960.5255;;;;
2019/07/01 03:40:10;;;;;;;8.9;7.1;;;;;;;23.16;59.17383;960.5912;;;;
2019/07/01 03:42:35;;;;;;;9.8;7.8;;;;;;;23.24;59.19629;960.6811;;;;
2019/07/01 03:45:00;;;;;;;9.5;7.8;;;;;;;23.26;58.22754;960.7497;;;;
2019/07/01 03:47:25;;;;;;;9.1;7;;;;;;;23.33;58.8877;960.7809;;;;
2019/07/01 03:49:50;;;;;;;8.3;7.2;;;;;;;23.32;59.32617;960.7662;;;;
2019/07/01 03:52:15;;;;;;;14.2;7.6;;;;;;;23.27;59.98145;960.7678;;;;
2019/07/01 03:54:40;;;;;;;10.6;7.6;;;;;;;23.23;59.37305;960.7271;;;;
2019/07/01 03:57:05;;;;;;;10.1;6.9;;;;;;;23.32;57.86719;960.7605;;;;
2019/07/01 03:59:30;;;;;;;8.7;6.9;;;;;;;23.39;58.3623;960.7725;;;;
2019/07/01 04:02:27;;;;;;;8.4;6.9;;;;;;;23.36;57.54004;960.8108;;;;
2019/07/01 04:04:52;;;;;;;12.5;7.5;;;;;;;23.28;57.66113;960.7733;;;;
2019/07/01 04:07:17;;;;;;;11;7.4;;;;;;;23.31;57.37012;960.8089;;;;
2019/07/01 04:09:42;;;;;;;8.3;7.4;;;;;;;23.37;57.12793;960.7783;;;;
2019/07/01 04:12:08;;;;;;;7.9;7.1;;;;;;;23.33;57.36035;960.8117;;;;
2019/07/01 04:14:33;;;;;;;9.8;7.6;;;;;;;23.38;57.3418;960.7878;;;;
2019/07/01 04:16:58;;;;;;;9.9;7.7;;;;;;;23.43;57.34766;960.7791;;;;
2019/07/01 04:19:23;;;;;;;10.1;7.1;;;;;;;23.45;57.54102;960.7939;;;;
2019/07/01 04:21:48;;;;;;;12.2;7.8;;;;;;;23.53;57.49219;960.7467;;;;
2019/07/01 04:24:13;;;;;;;10.1;7.4;;;;;;;23.51;57.90527;960.7156;;;;
2019/07/01 04:26:38;;;;;;;9.9;7.9;;;;;;;23.54;58.15723;960.6414;;;;
2019/07/01 04:29:03;;;;;;;9.4;7.9;;;;;;;23.51;59.19727;960.6656;;;;
2019/07/01 04:31:28;;;;;;;8.5;7.4;;;;;;;23.52;59.69434;960.7729;;;;
2019/07/01 04:33:54;;;;;;;8.7;7.8;;;;;;;23.51;57.69141;960.7764;;;;
2019/07/01 04:36:19;;;;;;;9.3;7.9;;;;;;;23.57;57.83008;960.8878;;;;
2019/07/01 04:38:44;;;;;;;10.1;7.6;;;;;;;23.65;57.42285;960.9504;;;;
2019/07/01 04:41:09;;;;;;;10.7;7.8;;;;;;;23.75;57.36621;960.935;;;;
2019/07/01 04:43:34;;;;;;;11.3;8;;;;;;;23.66;57.47363;960.9792;;;;
2019/07/01 04:45:59;;;;;;;10;7.6;;;;;;;23.73;57.3623;960.976;;;;
2019/07/01 04:48:24;;;;;;;10.6;8;;;;;;;23.82;57.04297;961.0912;;;;
2019/07/01 04:50:49;;;;;;;10.2;7.4;;;;;;;23.92;57.24609;961.0338;;;;
2019/07/01 04:53:15;;;;;;;9.5;8.1;;;;;;;23.92;56.46387;961.0728;;;;
2019/07/01 04:55:40;;;;;;;9.7;7.6;;;;;;;24.05;56.28906;961.0341;;;;
2019/07/01 04:58:05;;;;;;;9.6;7.7;;;;;;;24.03;56.61914;960.9855;;;;
2019/07/01 05:00:30;;;;;;;10.1;8;;;;;;;24.08;56.51953;961.0349;;;;
2019/07/01 05:02:55;;;;;;;11.7;8;;;;;;;24.23;55.87207;961.0009;;;;
2019/07/01 05:05:20;;;;;;;8.8;7.5;;;;;;;24.38;55.66504;961.0059;;;;
2019/07/01 05:07:45;;;;;;;9.7;7.6;;;;;;;24.32;55.78906;960.973;;;;
2019/07/01 05:10:10;;;;;;;9.5;8.2;;;;;;;24.34;55.75586;961.0097;;;;
2019/07/01 05:12:35;;;;;;;9.6;8.1;;;;;;;24.37;55.98535;961.0894;;;;
2019/07/01 05:15:00;;;;;;;10;7.7;;;;;;;24.36;55.90039;961.0601;;;;
2019/07/01 05:17:25;;;;;;;10.5;7.8;;;;;;;24.32;55.86035;961.0595;;;;
2019/07/01 05:19:50;;;;;;;10.5;8;;;;;;;24.47;55.62988;961.0775;;;;
2019/07/01 05:22:15;;;;;;;8.4;7.5;;;;;;;24.51;55.59766;961.1555;;;;
2019/07/01 05:24:41;;;;;;;11.7;8;;;;;;;24.43;55.81543;961.051;;;;
2019/07/01 05:27:06;;;;;;;9;7.6;;;;;;;24.48;55.96289;961.0913;;;;
2019/07/01 05:29:31;;;;;;;10.2;8;;;;;;;24.61;55.8252;961.0417;;;;
2019/07/01 05:31:56;;;;;;;10.5;7.9;;;;;;;24.7;55.38477;961.0247;;;;
2019/07/01 05:34:21;;;;;;;13.6;8.3;;;;;;;24.69;55.78711;961.0683;;;;
2019/07/01 05:36:46;;;;;;;14.9;8.6;;;;;;;24.69;55.76465;961.0773;;;;
2019/07/01 05:39:11;;;;;;;10.7;8.1;;;;;;;24.75;55.98535;961.0488;;;;
2019/07/01 05:41:36;;;;;;;11.5;8.1;;;;;;;24.8;56.05078;961.0998;;;;
2019/07/01 05:44:01;;;;;;;14.9;8.3;;;;;;;24.86;55.99902;961.1266;;;;
2019/07/01 05:46:27;;;;;;;12.9;8;;;;;;;24.97;55.72656;961.1728;;;;
2019/07/01 05:48:52;;;;;;;12.8;8;;;;;;;25.05;55.52246;961.0901;;;;
2019/07/01 05:51:17;;;;;;;11.2;8.1;;;;;;;25.08;55.52637;961.1208;;;;
2019/07/01 05:53:42;;;;;;;9.5;7.8;;;;;;;25.13;55.60449;961.0934;;;;
2019/07/01 05:56:07;;;;;;;12.2;7.8;;;;;;;25.28;55.44434;961.123;;;;
2019/07/01 05:58:32;;;;;;;11.2;7.6;;;;;;;25.23;55.70117;961.0428;;;;
2019/07/01 06:00:57;;;;;;;12.2;8.1;;;;;;;25.3;56.41211;961.0544;;;;
2019/07/01 06:03:22;;;;;;;13.9;8;;;;;;;25.49;55.31641;961.0278;;;;
2019/07/01 06:05:47;;;;;;;12.4;8;;;;;;;25.49;55.66211;961.1019;;;;
2019/07/01 06:08:12;;;;;;;12.9;8.4;;;;;;;25.54;55.60742;961.1468;;;;
2019/07/01 06:10:37;;;;;;;13.7;8.1;;;;;;;25.64;55.2998;961.1395;;;;
2019/07/01 06:13:02;;;;;;;12.5;7.9;;;;;;;25.7;55.36621;961.093;;;;
2019/07/01 06:15:27;;;;;;;8.9;7.9;;;;;;;25.81;55.28516;961.1052;;;;
2019/07/01 06:17:52;;;;;;;10.6;8;;;;;;;25.94;55.08496;961.1094;;;;
2019/07/01 06:20:18;;;;;;;12.6;8.2;;;;;;;25.96;55.20703;961.1281;;;;
2019/07/01 06:22:43;;;;;;;11.4;7.9;;;;;;;26.1;55.09375;961.1453;;;;
2019/07/01 06:25:08;;;;;;;12.4;7.7;;;;;;;26.17;55.32813;961.1349;;;;
2019/07/01 06:27:33;;;;;;;14.5;8.4;;;;;;;26.35;54.56445;961.0217;;;;
2019/07/01 06:29:58;;;;;;;11.2;7.5;;;;;;;26.42;54.48828;960.947;;;;
2019/07/01 06:32:23;;;;;;;11.2;8.1;;;;;;;26.44;54.4541;961.0148;;;;
2019/07/01 06:34:48;;;;;;;13;7.8;;;;;;;26.46;54.55371;961.1199;;;;
2019/07/01 06:37:13;;;;;;;13.3;8.4;;;;;;;26.44;54.53906;961.1591;;;;
2019/07/01 06:39:38;;;;;;;15.3;8.5;;;;;;;26.49;54.60449;961.2502;;;;
2019/07/01 06:42:04;;;;;;;13.6;8.2;;;;;;;26.65;54.54004;961.3614;;;;
2019/07/01 06:44:29;;;;;;;13.4;7.9;;;;;;;26.73;54.08496;961.4146;;;;
2019/07/01 06:46:54;;;;;;;10.1;7.9;;;;;;;26.84;53.96582;961.4509;;;;
2019/07/01 06:49:19;;;;;;;10.1;7.6;;;;;;;26.83;54.05957;961.4746;;;;
2019/07/01 06:51:44;;;;;;;11.3;8.2;;;;;;;26.96;53.5752;961.4146;;;;
2019/07/01 06:54:09;;;;;;;10.2;8;;;;;;;27.02;53.73828;961.3801;;;;
2019/07/01 06:56:34;;;;;;;11.6;7.8;;;;;;;27.13;53.59473;961.3957;;;;
2019/07/01 06:58:59;;;;;;;9.8;7.9;;;;;;;27.2;53.20996;961.4337;;;;
2019/07/01 07:01:24;;;;;;;10.3;7.6;;;;;;;27.31;53.10254;961.4599;;;;
2019/07/01 07:03:49;;;;;;;10.6;7.6;;;;;;;27.36;53.07227;961.4899;;;;
2019/07/01 07:06:14;;;;;;;12.3;8.3;;;;;;;27.52;52.91211;961.5427;;;;
2019/07/01 07:08:39;;;;;;;13.1;8.4;;;;;;;27.51;52.87402;961.499;;;;
2019/07/01 07:11:05;;;;;;;10.8;8.5;;;;;;;27.47;53.00195;961.5452;;;;
2019/07/01 07:13:30;;;;;;;12.6;8.3;;;;;;;27.44;53.08203;961.5281;;;;
2019/07/01 07:15:55;;;;;;;15.5;10.3;;;;;;;27.58;52.73926;961.5627;;;;
2019/07/01 07:18:20;;;;;;;12.3;8.5;;;;;;;27.41;53.09082;961.5328;;;;
2019/07/01 07:20:45;;;;;;;11.4;9;;;;;;;27.49;53.30371;961.5072;;;;
2019/07/01 07:23:10;;;;;;;11.9;8.8;;;;;;;27.65;52.8916;961.4742;;;;
2019/07/01 07:25:35;;;;;;;11.1;8.9;;;;;;;27.63;52.98535;961.4764;;;;
2019/07/01 07:28:00;;;;;;;12.4;8.3;;;;;;;27.69;52.78809;961.5392;;;;
2019/07/01 07:30:25;;;;;;;10.7;8.2;;;;;;;27.68;53.08594;961.6362;;;;
2019/07/01 07:32:50;;;;;;;10.8;8.1;;;;;;;27.78;52.89453;961.6375;;;;
2019/07/01 07:35:15;;;;;;;12.1;8;;;;;;;27.85;52.99902;961.6428;;;;
2019/07/01 07:37:41;;;;;;;11;8.5;;;;;;;27.82;53.40137;961.6183;;;;
2019/07/01 07:40:06;;;;;;;10.4;8.4;;;;;;;27.95;52.8418;961.5832;;;;
2019/07/01 07:42:31;;;;;;;13.2;8.4;;;;;;;27.98;53.25293;961.6187;;;;
2019/07/01 07:44:56;;;;;;;11;8.4;;;;;;;28.19;52.87207;961.7383;;;;
2019/07/01 07:47:21;;;;;;;12.1;8.3;;;;;;;28.2;53.31543;961.8075;;;;
2019/07/01 07:49:46;;;;;;;12.8;8.1;;;;;;;28.42;52.88574;961.8394;;;;
2019/07/01 07:52:11;;;;;;;11.4;8.1;;;;;;;28.32;52.75488;961.7875;;;;
2019/07/01 07:54:36;;;;;;;12.4;8.4;;;;;;;28.34;52.55273;961.7977;;;;
2019/07/01 07:57:01;;;;;;;14.8;9.1;;;;;;;28.44;52.93652;961.7477;;;;
2019/07/01 07:59:26;;;;;;;10.5;8.5;;;;;;;28.39;52.84766;961.7541;;;;
2019/07/01 08:01:51;;;;;;;12.1;8.3;;;;;;;28.43;52.87598;961.6831;;;;
2019/07/01 08:04:16;;;;;;;13.7;8.6;;;;;;;28.46;52.97461;961.7119;;;;
2019/07/01 08:06:42;;;;;;;10.4;8.1;;;;;;;28.53;52.91016;961.6489;;;;
2019/07/01 08:09:07;;;;;;;12.6;8.4;;;;;;;28.66;52.89063;961.5952;;;;
2019/07/01 08:11:32;;;;;;;12.4;8.1;;;;;;;28.7;52.46191;961.5172;;;;
2019/07/01 08:13:57;;;;;;;11.6;8.3;;;;;;;28.83;51.99805;961.5383;;;;
2019/07/01 08:16:22;;;;;;;12.7;8.1;;;;;;;28.91;51.89941;961.5493;;;;
2019/07/01 08:18:47;;;;;;;11.1;7.7;;;;;;;29.02;52.16504;961.5575;;;;
2019/07/01 08:21:12;;;;;;;11.9;8;;;;;;;29.15;51.9873;961.6163;;;;
2019/07/01 08:23:37;;;;;;;12.8;8;;;;;;;29.22;52.25977;961.6572;;;;
2019/07/01 08:26:02;;;;;;;12.8;7.9;;;;;;;29.29;52.01563;961.694;;;;
2019/07/01 08:28:27;;;;;;;13;8.4;;;;;;;29.37;51.68848;961.7611;;;;
2019/07/01 08:30:52;;;;;;;11.3;8.3;;;;;;;29.1;52.36621;961.7253;;;;
2019/07/01 08:33:18;;;;;;;14.2;8.2;;;;;;;29.1;52.54492;961.7952;;;;
2019/07/01 08:35:43;;;;;;;12.7;8.6;;;;;;;29.13;52.5498;961.7852;;;;
2019/07/01 08:38:08;;;;;;;12.1;7.8;;;;;;;29.15;52.39551;961.7547;;;;
2019/07/01 08:40:33;;;;;;;9.9;8.2;;;;;;;29.29;52.09863;961.7125;;;;
2019/07/01 08:42:58;;;;;;;11.4;8.1;;;;;;;29.12;52.39258;961.6495;;;;
2019/07/01 08:45:23;;;;;;;12;8;;;;;;;29.2;52.53418;961.6473;;;;
2019/07/01 08:47:48;;;;;;;10.9;7.9;;;;;;;29.37;52.28906;961.6417;;;;
2019/07/01 08:50:13;;;;;;;10.9;8.2;;;;;;;29.33;52.5127;961.6552;;;;
2019/07/01 08:52:38;;;;;;;11;7.8;;;;;;;29.58;52.74609;961.6166;;;;
2019/07/01 08:55:03;;;;;;;13.9;8.3;;;;;;;29.62;51.83691;961.6049;;;;
2019/07/01 08:57:28;;;;;;;13.5;8.2;;;;;;;29.62;51.91016;961.6735;;;;
2019/07/01 08:59:54;;;;;;;12.1;8.4;;;;;;;29.65;52.17773;961.6267;;;;
2019/07/01 09:02:19;;;;;;;14;8.3;;;;;;;29.81;52.65234;961.64;;;;
2019/07/01 09:04:44;;;;;;;14.2;8.8;;;;;;;29.81;52.49609;961.5859;;;;
2019/07/01 09:07:09;;;;;;;13;9;;;;;;;29.76;52.74414;961.601;;;;
2019/07/01 09:09:34;;;;;;;12.8;8.7;;;;;;;29.78;52.8291;961.5845;;;;
2019/07/01 09:11:59;;;;;;;12.9;8.5;;;;;;;29.96;52.62207;961.6373;;;;
2019/07/01 09:14:25;;;;;;;12.2;8.9;;;;;;;29.99;52.28906;961.6384;;;;
2019/07/01 09:16:50;;;;;;;13.7;8.6;;;;;;;29.91;52.53223;961.6236;;;;
2019/07/01 09:19:15;;;;;;;12;8.6;;;;;;;30.01;51.78613;961.6131;;;;
2019/07/01 09:21:40;;;;;;;17;8.7;;;;;;;30.04;51.76465;961.641;;;;
2019/07/01 09:24:05;;;;;;;13.6;8.7;;;;;;;30.01;51.49707;961.6138;;;;
2019/07/01 09:26:30;;;;;;;13.6;8.8;;;;;;;30.24;51.54785;961.5961;;;;
2019/07/01 09:28:55;;;;;;;12.6;9.2;;;;;;;30.38;51.33496;961.5666;;;;
2019/07/01 09:31:20;;;;;;;12.6;8.6;;;;;;;30.42;51.12207;961.546;;;;
2019/07/01 09:33:45;;;;;;;13.8;8.5;;;;;;;30.42;50.9668;961.4783;;;;
2019/07/01 09:36:11;;;;;;;12.7;8.7;;;;;;;30.65;50.61816;961.532;;;;
2019/07/01 09:38:36;;;;;;;12.9;8.9;;;;;;;30.75;50.08789;961.4747;;;;
2019/07/01 09:41:01;;;;;;;13.2;8.4;;;;;;;30.97;49.77344;961.4819;;;;
2019/07/01 09:43:26;;;;;;;12.9;8.2;;;;;;;30.76;49.05176;961.4911;;;;
2019/07/01 09:45:51;;;;;;;15.2;8.6;;;;;;;30.78;48.80176;961.5295;;;;
2019/07/01 09:48:16;;;;;;;12.4;8.8;;;;;;;30.83;48.50586;961.5095;;;;
2019/07/01 09:50:41;;;;;;;14.9;8.9;;;;;;;30.69;49.16602;961.4766;;;;
2019/07/01 09:53:07;;;;;;;10.1;8.3;;;;;;;30.79;49.47852;961.4827;;;;
2019/07/01 09:55:32;;;;;;;12.3;8.5;;;;;;;30.83;49.14551;961.4899;;;;
2019/07/01 09:57:57;;;;;;;15.7;9.5;;;;;;;30.9;48.81543;961.4678;;;;
2019/07/01 10:00:22;;;;;;;13.4;8.8;;;;;;;31.12;48.97168;961.3674;;;;
2019/07/01 10:02:47;;;;;;;13.4;9.4;;;;;;;31.06;49.36328;961.3918;;;;
2019/07/01 10:05:12;;;;;;;15.1;9.3;;;;;;;30.71;50.40918;961.4069;;;;
2019/07/01 10:07:37;;;;;;;14.1;9.6;;;;;;;30.42;51.39844;961.4406;;;;
2019/07/01 10:10:02;;;;;;;14.2;9.5;;;;;;;30.53;51.55762;961.3812;;;;
2019/07/01 10:12:27;;;;;;;15.5;9.8;;;;;;;30.58;51.60938;961.3954;;;;
2019/07/01 10:14:52;;;;;;;15.6;9.8;;;;;;;30.57;51.82617;961.4261;;;;
2019/07/01 10:17:17;;;;;;;13.8;9.4;;;;;;;30.62;51.63965;961.3409;;;;
2019/07/01 10:19:42;;;;;;;13;9.6;;;;;;;30.62;51.25488;961.2095;;;;
2019/07/01 10:22:08;;;;;;;14.1;9.1;;;;;;;30.73;51.04883;961.1866;;;;
2019/07/01 10:24:33;;;;;;;14.6;9.4;;;;;;;30.7;50.35938;961.0308;;;;
2019/07/01 10:26:58;;;;;;;13.8;9.2;;;;;;;30.68;51.00781;960.9309;;;;
2019/07/01 10:29:23;;;;;;;14.8;9.6;;;;;;;30.73;50.80762;960.8223;;;;
2019/07/01 10:31:48;;;;;;;15.4;9.6;;;;;;;30.79;50.53809;960.8196;;;;
2019/07/01 10:34:13;;;;;;;15.1;9.2;;;;;;;30.97;48.09863;960.7729;;;;
2019/07/01 10:36:38;;;;;;;12.8;8.4;;;;;;;30.96;48.72461;960.6992;;;;
2019/07/01 10:39:04;;;;;;;13.3;8.9;;;;;;;30.92;50.05762;960.6131;;;;
2019/07/01 10:41:29;;;;;;;12.1;8.7;;;;;;;30.83;51.15723;960.4628;;;;
2019/07/01 10:43:54;;;;;;;17.6;9.7;;;;;;;30.85;51.14746;960.4489;;;;
2019/07/01 10:46:19;;;;;;;13.1;8.3;;;;;;;31.03;47.99707;960.4016;;;;
2019/07/01 10:48:44;;;;;;;12.7;8.9;;;;;;;31.03;47.98633;960.3904;;;;
2019/07/01 10:51:09;;;;;;;13;8.6;;;;;;;31.08;47.54395;960.407;;;;
2019/07/01 10:53:34;;;;;;;13.7;8.2;;;;;;;31.04;47.74512;960.3325;;;;
2019/07/01 10:55:59;;;;;;;12.6;8.5;;;;;;;31.12;46.94629;960.5055;;;;
2019/07/01 10:58:25;;;;;;;12.4;8.4;;;;;;;30.84;46.9668;960.5577;;;;
2019/07/01 11:00:50;;;;;;;13.6;8;;;;;;;30.9;47.03223;960.4792;;;;
2019/07/01 11:03:15;;;;;;;14.4;8.4;;;;;;;30.94;47.34863;960.5245;;;;
2019/07/01 11:05:40;;;;;;;12.1;7.6;;;;;;;30.91;46.90039;960.5303;;;;
2019/07/01 11:08:05;;;;;;;13;7.5;;;;;;;31;46.23438;960.5814;;;;
2019/07/01 11:10:30;;;;;;;12.5;7.3;;;;;;;31.08;45.30273;960.5856;;;;
2019/07/01 11:12:55;;;;;;;10.4;7.5;;;;;;;31.2;45.84473;960.6085;;;;
2019/07/01 11:15:21;;;;;;;9.8;7.5;;;;;;;31.2;45.18164;960.6758;;;;
2019/07/01 11:17:46;;;;;;;11.1;7.5;;;;;;;31.38;44.35547;960.6459;;;;
2019/07/01 11:20:11;;;;;;;12.1;7.1;;;;;;;31.28;42.01758;960.6124;;;;
2019/07/01 11:22:36;;;;;;;10.7;7.1;;;;;;;31.63;42.36426;960.5108;;;;
2019/07/01 11:25:01;;;;;;;13.4;6.9;;;;;;;31.66;42.37988;960.6022;;;;
2019/07/01 11:27:26;;;;;;;10.2;7.2;;;;;;;31.78;43.24707;960.4709;;;;
2019/07/01 11:29:51;;;;;;;11.9;6.8;;;;;;;31.85;41.79297;960.4866;;;;
2019/07/01 11:32:16;;;;;;;9.1;7;;;;;;;31.71;42.27539;960.4221;;;;
2019/07/01 11:34:42;;;;;;;12.8;7.2;;;;;;;31.66;41.8125;960.3594;;;;
2019/07/01 11:37:07;;;;;;;10;7.2;;;;;;;31.35;42.72461;960.3486;;;;
2019/07/01 11:39:32;;;;;;;14.3;7.7;;;;;;;31.22;43.29004;960.4291;;;;
2019/07/01 11:41:57;;;;;;;11.7;7.3;;;;;;;31.15;43.83789;960.4804;;;;
2019/07/01 11:44:22;;;;;;;13.1;7.1;;;;;;;31.08;44.19238;960.5142;;;;
2019/07/01 11:46:47;;;;;;;11.6;7.4;;;;;;;31.21;44.50781;960.5052;;;;
2019/07/01 11:49:12;;;;;;;11.2;7.2;;;;;;;31.35;43.7373;960.5221;;;;
2019/07/01 11:51:37;;;;;;;12.5;7.8;;;;;;;31.4;43.27246;960.55;;;;
2019/07/01 11:54:03;;;;;;;13.5;7.9;;;;;;;31.1;42.38672;960.5569;;;;
2019/07/01 11:56:28;;;;;;;12.7;7.1;;;;;;;31.18;43.1543;960.6099;;;;
2019/07/01 11:58:53;;;;;;;11;7.6;;;;;;;31.38;43.93262;960.6348;;;;
2019/07/01 12:01:18;;;;;;;13.6;8;;;;;;;31.45;43.72363;960.7188;;;;
2019/07/01 12:03:43;;;;;;;12.8;7.2;;;;;;;31.15;42.58398;960.7189;;;;
2019/07/01 12:06:08;;;;;;;10.5;7;;;;;;;31.37;42.58105;960.7642;;;;
2019/07/01 12:08:33;;;;;;;12.2;6.9;;;;;;;31.47;43.09668;960.7642;;;;
2019/07/01 12:10:59;;;;;;;11.5;7.4;;;;;;;31.53;42.86133;960.699;;;;
2019/07/01 12:13:33;;;;;;;13.5;7.3;;;;;;;31.59;43.66309;960.6732;;;;
2019/07/01 12:15:58;;;;;;;12.9;7.3;;;;;;;31.75;42.29102;960.5641;;;;
2019/07/01 12:18:23;;;;;;;13;7.5;;;;;;;31.91;42.74023;960.5628;;;;
2019/07/01 12:20:48;;;;;;;10.7;7;;;;;;;31.93;41.3418;960.4763;;;;
2019/07/01 12:23:13;;;;;;;11.4;6.9;;;;;;;32.02;40.96289;960.335;;;;
2019/07/01 12:25:38;;;;;;;10.6;7.1;;;;;;;32.11;40.59668;960.3161;;;;
2019/07/01 12:28:03;;;;;;;11.6;7.5;;;;;;;32.12;40.7666;960.1707;;;;
2019/07/01 12:30:28;;;;;;;11.7;7.1;;;;;;;32.44;40.23926;960.124;;;;
2019/07/01 12:32:53;;;;;;;12.1;7.1;;;;;;;32.72;39.76758;959.9727;;;;
2019/07/01 12:35:18;;;;;;;9.7;7;;;;;;;32.6;40.04785;959.8923;;;;
2019/07/01 12:37:44;;;;;;;10.8;7.1;;;;;;;32.05;39.87891;959.9828;;;;
2019/07/01 12:40:09;;;;;;;10.3;7.1;;;;;;;31.75;41.94043;960.1172;;;;
2019/07/01 12:42:34;;;;;;;13;8;;;;;;;31.6;41.47949;960.307;;;;
2019/07/01 12:44:59;;;;;;;13.4;7.4;;;;;;;31.4;42.0293;960.3494;;;;
2019/07/01 12:47:24;;;;;;;11.1;7.7;;;;;;;31.33;42.68652;960.2263;;;;
2019/07/01 12:49:49;;;;;;;10.4;7;;;;;;;31.26;44.39258;960.3024;;;;
2019/07/01 12:52:14;;;;;;;14.8;8;;;;;;;30.76;46.69141;960.4348;;;;
2019/07/01 12:54:39;;;;;;;16.1;7.2;;;;;;;30.43;46.88672;960.6831;;;;
2019/07/01 12:57:04;;;;;;;18.4;7;;;;;;;29.76;47.80371;960.8967;;;;
2019/07/01 12:59:29;;;;;;;16.3;6.7;;;;;;;29.39;48.64063;961.0051;;;;
2019/07/01 13:01:54;;;;;;;14;6.5;;;;;;;28.9;49.65625;960.6475;;;;
2019/07/01 13:04:20;;;;;;;15.6;6.8;;;;;;;28.68;49.62988;960.4331;;;;
2019/07/01 13:06:45;;;;;;;13.4;6.5;;;;;;;28.45;50.6123;960.4775;;;;
2019/07/01 13:09:10;;;;;;;12.6;7;;;;;;;28.22;51.88086;960.4819;;;;
2019/07/01 13:11:35;;;;;;;13.6;7.1;;;;;;;28.25;53.1543;960.4662;;;;
2019/07/01 13:14:00;;;;;;;14.7;7.4;;;;;;;27.86;51.49121;960.5345;;;;
2019/07/01 13:16:25;;;;;;;15.9;7.8;;;;;;;27.38;52.54883;960.5784;;;;
2019/07/01 13:18:50;;;;;;;18;8.2;;;;;;;27.2;56.37695;960.7356;;;;
2019/07/01 13:21:15;;;;;;;17.3;8.3;;;;;;;26.56;60.18652;960.5025;;;;
2019/07/01 13:23:40;;;;;;;23.4;8.6;;;;;;;26.28;61.37793;960.2906;;;;
2019/07/01 13:26:05;;;;;;;20.9;9.1;;;;;;;25.66;66.42676;960.3697;;;;
2019/07/01 13:28:30;;;;;;;32.2;11.4;;;;;;;25.3;74.29785;960.4814;;;;
2019/07/01 13:30:56;;;;;;;23.6;11;;;;;;;24.99;75.86328;960.3167;;;;
2019/07/01 13:33:21;;;;;;;21.7;10.2;;;;;;;24.72;75.6875;960.5162;;;;
2019/07/01 13:35:46;;;;;;;24;10.1;;;;;;;24.15;75.80566;960.7687;;;;
2019/07/01 13:38:11;;;;;;;23.5;10.6;;;;;;;24.14;76.77734;960.7906;;;;
2019/07/01 13:40:36;;;;;;;15.5;10.3;;;;;;;24.04;77.30566;960.8644;;;;
2019/07/01 13:43:01;;;;;;;16.6;10.7;;;;;;;24.07;78.35352;961.2477;;;;
2019/07/01 13:45:26;;;;;;;15.8;10.9;;;;;;;24.07;79.43359;961.8306;;;;
2019/07/01 13:47:51;;;;;;;15.4;10.2;;;;;;;24.08;76.13867;961.9519;;;;
2019/07/01 13:50:16;;;;;;;19.6;11.1;;;;;;;23.95;74.59668;961.7523;;;;
2019/07/01 13:52:42;;;;;;;18.9;10;;;;;;;24.14;72.3125;961.6808;;;;
2019/07/01 13:55:07;;;;;;;19.1;9.9;;;;;;;24.11;71.13281;961.3985;;;;
2019/07/01 13:57:32;;;;;;;21.7;11.4;;;;;;;23.94;76.37402;960.9636;;;;
2019/07/01 13:59:57;;;;;;;18.7;10.9;;;;;;;23.99;76.27441;960.8011;;;;
2019/07/01 14:02:22;;;;;;;20.5;11.5;;;;;;;23.8;78.78223;960.669;;;;